createdAt,value
2023-04-26T00:00:22.503Z,100869.25
2023-04-26T00:02:48.812Z,100876.97
2023-04-26T00:05:15.220Z,100871.72
2023-04-26T00:07:43.901Z,100873.50
2023-04-26T00:10:10.054Z,100863.19
2023-04-26T00:12:36.232Z,100871.03
2023-04-26T00:15:02.396Z,100862.47
2023-04-26T00:17:28.590Z,100868.50
2023-04-26T00:19:54.842Z,100870.25
2023-04-26T00:22:21.023Z,100866.00
2023-04-26T00:24:47.311Z,100866.03
2023-04-26T00:27:13.508Z,100887.53
2023-04-26T00:29:39.737Z,100885.88
2023-04-26T00:32:06.054Z,100881.66
2023-04-26T00:34:32.236Z,100881.69
2023-04-26T00:36:58.634Z,100877.44
2023-04-26T00:39:24.838Z,100873.16
2023-04-26T00:41:51.048Z,100870.59
2023-04-26T00:44:17.221Z,100872.31
2023-04-26T00:46:43.353Z,100871.47
2023-04-26T00:49:09.461Z,100876.63
2023-04-26T00:51:35.633Z,100875.78
2023-04-26T00:54:01.827Z,100880.09
2023-04-26T00:56:28.023Z,100873.31
2023-04-26T00:58:54.335Z,100883.72
2023-04-26T01:01:20.732Z,100881.22
2023-04-26T01:03:47.114Z,100882.13
2023-04-26T01:06:13.394Z,100884.78
2023-04-26T01:08:39.549Z,100879.66
2023-04-26T01:11:05.730Z,100880.63
2023-04-26T01:13:31.912Z,100876.38
2023-04-26T01:15:58.076Z,100875.66
2023-04-26T01:18:24.225Z,100881.69
2023-04-26T01:20:50.363Z,100883.47
2023-04-26T01:23:16.549Z,100882.66
2023-04-26T01:25:42.708Z,100876.72
2023-04-26T01:28:08.865Z,100881.06
2023-04-26T01:30:35.016Z,100875.09
2023-04-26T01:33:01.266Z,100873.41
2023-04-26T01:35:28.064Z,100869.09
2023-04-26T01:37:54.192Z,100867.41
2023-04-26T01:40:20.405Z,100868.28
2023-04-26T01:42:46.615Z,100876.91
2023-04-26T01:45:12.800Z,100876.94
2023-04-26T01:47:39.017Z,100875.28
2023-04-26T01:50:05.183Z,100879.63
2023-04-26T01:52:31.403Z,100876.25
2023-04-26T01:54:57.634Z,100880.53
2023-04-26T01:57:25.734Z,100878.03
2023-04-26T01:59:51.896Z,100880.66
2023-04-26T02:02:18.062Z,100874.66
2023-04-26T02:04:44.277Z,100879.91
2023-04-26T02:07:10.449Z,100872.22
2023-04-26T02:09:36.640Z,100877.38
2023-04-26T02:12:02.816Z,100880.81
2023-04-26T02:14:28.981Z,100885.16
2023-04-26T02:16:55.153Z,100887.75
2023-04-26T02:19:21.320Z,100882.66
2023-04-26T02:21:47.435Z,100896.38
2023-04-26T02:24:13.615Z,100892.13
2023-04-26T02:26:39.769Z,100886.97
2023-04-26T02:29:05.932Z,100886.16
2023-04-26T02:31:32.524Z,100887.91
2023-04-26T02:33:58.663Z,100890.47
2023-04-26T02:36:24.842Z,100893.91
2023-04-26T02:38:51.170Z,100893.06
2023-04-26T02:41:17.480Z,100896.50
2023-04-26T02:43:43.640Z,100892.25
2023-04-26T02:46:09.848Z,100894.84
2023-04-26T02:48:36.000Z,100887.97
2023-04-26T02:51:02.194Z,100885.41
2023-04-26T02:53:28.576Z,100888.88
2023-04-26T02:55:54.740Z,100890.56
2023-04-26T02:58:20.870Z,100888.00
2023-04-26T03:00:47.163Z,100891.44
2023-04-26T03:03:13.643Z,100900.88
2023-04-26T03:05:40.034Z,100897.44
2023-04-26T03:08:06.179Z,100899.16
2023-04-26T03:10:32.350Z,100894.91
2023-04-26T03:12:58.579Z,100892.34
2023-04-26T03:15:24.774Z,100894.91
2023-04-26T03:17:50.927Z,100892.38
2023-04-26T03:20:17.129Z,100900.06
2023-04-26T03:22:43.260Z,100894.13
2023-04-26T03:25:09.451Z,100895.84
2023-04-26T03:27:35.636Z,100894.13
2023-04-26T03:30:04.508Z,100900.97
2023-04-26T03:32:30.694Z,100896.69
2023-04-26T03:34:56.875Z,100901.84
2023-04-26T03:37:23.039Z,100900.13
2023-04-26T03:39:49.239Z,100896.69
2023-04-26T03:42:15.394Z,100904.41
2023-04-26T03:44:41.521Z,100904.41
2023-04-26T03:47:07.720Z,100900.97
2023-04-26T03:49:33.937Z,100904.41
2023-04-26T03:52:00.136Z,100907.84
2023-04-26T03:54:26.336Z,100910.41
2023-04-26T03:56:52.490Z,100907.84
2023-04-26T03:59:18.704Z,100894.16
2023-04-26T04:01:44.820Z,100893.28
2023-04-26T04:04:11.255Z,100890.72
2023-04-26T04:06:37.642Z,100892.44
2023-04-26T04:09:03.821Z,100885.63
2023-04-26T04:11:29.972Z,100889.91
2023-04-26T04:13:56.110Z,100885.63
2023-04-26T04:16:22.406Z,100890.75
2023-04-26T04:18:48.966Z,100891.59
2023-04-26T04:21:15.152Z,100895.88
2023-04-26T04:23:41.317Z,100893.28
2023-04-26T04:26:07.523Z,100895.00
2023-04-26T04:28:33.726Z,100897.53
2023-04-26T04:31:00.004Z,100904.44
2023-04-26T04:33:26.166Z,100903.56
2023-04-26T04:35:52.348Z,100918.97
2023-04-26T04:38:18.546Z,100908.72
2023-04-26T04:40:44.676Z,100918.97
2023-04-26T04:43:11.163Z,100923.22
2023-04-26T04:45:37.340Z,100924.94
2023-04-26T04:48:03.569Z,100929.22
2023-04-26T04:50:29.811Z,100924.94
2023-04-26T04:52:55.964Z,100933.50
2023-04-26T04:55:22.103Z,100932.63
2023-04-26T04:57:48.302Z,100940.31
2023-04-26T05:00:14.470Z,100932.63
2023-04-26T05:02:40.763Z,100937.75
2023-04-26T05:05:07.085Z,100946.28
2023-04-26T05:07:33.272Z,100945.38
2023-04-26T05:09:59.392Z,100946.19
2023-04-26T05:12:25.674Z,100950.44
2023-04-26T05:14:51.872Z,100955.53
2023-04-26T05:17:18.061Z,100958.03
2023-04-26T05:19:44.179Z,100954.56
2023-04-26T05:22:10.372Z,100961.34
2023-04-26T05:24:36.546Z,100955.31
2023-04-26T05:27:02.721Z,100955.25
2023-04-26T05:29:28.926Z,100954.31
2023-04-26T05:31:55.135Z,100961.91
2023-04-26T05:34:21.463Z,100961.84
2023-04-26T05:36:47.608Z,100963.41
2023-04-26T05:39:15.700Z,100964.91
2023-04-26T05:41:41.872Z,100962.91
2023-04-26T05:44:08.073Z,100961.78
2023-04-26T05:46:34.202Z,100964.03
2023-04-26T05:49:00.354Z,100964.47
2023-04-26T05:51:29.572Z,100958.50
2023-04-26T05:53:55.700Z,100951.78
2023-04-26T05:56:22.027Z,100940.81
2023-04-26T05:58:48.162Z,100938.31
2023-04-26T06:01:14.350Z,100937.16
2023-04-26T06:03:40.704Z,100944.91
2023-04-26T06:06:06.984Z,100933.94
2023-04-26T06:08:33.157Z,100937.44
2023-04-26T06:10:59.317Z,100939.78
2023-04-26T06:13:28.529Z,100933.72
2023-04-26T06:15:54.711Z,100941.09
2023-04-26T06:18:20.846Z,100940.38
2023-04-26T06:20:48.217Z,100938.69
2023-04-26T06:23:14.437Z,100946.50
2023-04-26T06:25:40.569Z,100932.56
2023-04-26T06:28:06.714Z,100934.91
2023-04-26T06:30:33.942Z,100938.53
2023-04-26T06:33:00.265Z,100930.41
2023-04-26T06:35:26.453Z,100921.75
2023-04-26T06:37:52.626Z,100930.31
2023-04-26T06:40:18.838Z,100918.75
2023-04-26T06:42:45.010Z,100930.13
2023-04-26T06:45:11.197Z,100931.47
2023-04-26T06:47:37.406Z,100913.53
2023-04-26T06:50:03.598Z,100929.28
2023-04-26T06:52:29.810Z,100908.91
2023-04-26T06:54:57.620Z,100903.44
2023-04-26T06:57:24.101Z,100913.50
2023-04-26T06:59:50.314Z,100912.84
2023-04-26T07:05:00.560Z,100907.56
2023-04-26T07:07:26.923Z,100900.59
2023-04-26T07:09:53.150Z,100906.41
2023-04-26T07:12:19.338Z,100892.75
2023-04-26T07:14:45.595Z,100897.59
2023-04-26T07:17:11.771Z,100894.75
2023-04-26T07:19:37.942Z,100889.41
2023-04-26T07:22:04.125Z,100890.97
2023-04-26T07:24:30.255Z,100898.88
2023-04-26T07:26:56.819Z,100894.97
2023-04-26T07:29:23.178Z,100890.31
2023-04-26T07:31:49.321Z,100879.97
2023-04-26T07:34:15.482Z,100887.16
2023-04-26T07:36:43.780Z,100877.22
2023-04-26T07:39:09.993Z,100886.22
2023-04-26T07:41:36.164Z,100885.19
2023-04-26T07:44:02.314Z,100878.50
2023-04-26T07:46:28.526Z,100887.66
2023-04-26T07:48:54.696Z,100878.66
2023-04-26T07:51:20.834Z,100882.34
2023-04-26T07:53:47.067Z,100878.31
2023-04-26T07:56:13.237Z,100871.13
2023-04-26T07:58:39.471Z,100872.69
2023-04-26T08:01:05.735Z,100886.31
2023-04-26T08:03:32.102Z,100874.72
2023-04-26T08:05:58.501Z,100868.13
2023-04-26T08:08:24.927Z,100874.81
2023-04-26T08:10:51.082Z,100862.03
2023-04-26T08:13:17.287Z,100869.84
2023-04-26T08:18:34.133Z,100868.22
2023-04-26T08:21:00.284Z,100868.69
2023-04-26T08:23:27.514Z,100867.25
2023-04-26T08:25:53.655Z,100874.38
2023-04-26T08:28:19.815Z,100859.16
2023-04-26T08:30:46.047Z,100857.78
2023-04-26T08:33:12.256Z,100869.44
2023-04-26T08:38:29.170Z,100849.19
2023-04-26T08:40:55.375Z,100853.78
2023-04-26T08:43:21.614Z,100841.63
2023-04-26T08:45:47.873Z,100839.03
2023-04-26T08:48:14.122Z,100830.31
2023-04-26T08:50:40.356Z,100843.56
2023-04-26T08:53:06.607Z,100845.81
2023-04-26T08:55:32.835Z,100846.84
2023-04-26T08:57:59.003Z,100830.44
2023-04-26T09:00:25.159Z,100836.13
2023-04-26T09:05:42.240Z,100845.56
2023-04-26T09:08:08.423Z,100853.13
2023-04-26T09:10:34.595Z,100839.75
2023-04-26T09:13:00.744Z,100844.09
2023-04-26T09:15:27.007Z,100834.06
2023-04-26T09:17:53.214Z,100828.47
2023-04-26T09:20:19.404Z,100827.16
2023-04-26T09:22:45.572Z,100839.03
2023-04-26T09:25:11.720Z,100837.97
2023-04-26T09:27:37.898Z,100844.78
2023-04-26T09:30:04.073Z,100837.78
2023-04-26T09:32:31.384Z,100850.34
2023-04-26T09:37:58.457Z,100840.41
2023-04-26T09:40:26.608Z,100842.63
2023-04-26T09:42:52.953Z,100837.31
2023-04-26T09:45:19.109Z,100826.91
2023-04-26T09:50:35.330Z,100831.69
2023-04-26T09:53:01.530Z,100851.59
2023-04-26T09:55:34.645Z,100844.97
2023-04-26T09:58:02.012Z,100827.09
2023-04-26T10:00:28.226Z,100842.78
2023-04-26T10:02:54.687Z,100842.84
2023-04-26T10:05:20.953Z,100845.56
2023-04-26T10:07:47.101Z,100839.66
2023-04-26T10:10:13.462Z,100831.31
2023-04-26T10:12:39.676Z,100834.66
2023-04-26T10:15:05.869Z,100834.25
2023-04-26T10:17:32.325Z,100822.59
2023-04-26T10:19:58.573Z,100815.97
2023-04-26T10:22:24.794Z,100813.94
2023-04-26T10:24:51.088Z,100807.94
2023-04-26T10:27:19.889Z,100810.09
2023-04-26T10:29:46.166Z,100811.44
2023-04-26T10:32:12.463Z,100812.72
2023-04-26T10:34:38.751Z,100818.75
2023-04-26T10:37:04.922Z,100810.19
2023-04-26T10:39:31.204Z,100812.69
2023-04-26T10:41:57.494Z,100814.91
2023-04-26T10:44:23.673Z,100809.53
2023-04-26T10:46:49.881Z,100812.63
2023-04-26T10:49:16.026Z,100807.50
2023-04-26T10:51:43.388Z,100797.53
2023-04-26T10:54:09.593Z,100805.00
2023-04-26T10:56:35.755Z,100803.38
2023-04-26T10:59:02.775Z,100805.00
2023-04-26T11:01:29.140Z,100780.53
2023-04-26T11:03:55.830Z,100783.34
2023-04-26T11:06:22.449Z,100776.22
2023-04-26T11:08:48.933Z,100769.09
2023-04-26T11:11:15.152Z,100763.59
2023-04-26T11:13:41.305Z,100756.69
2023-04-26T11:16:07.497Z,100756.88
2023-04-26T11:18:33.709Z,100764.75
2023-04-26T11:20:59.901Z,100759.47
2023-04-26T11:23:26.241Z,100749.63
2023-04-26T11:25:55.492Z,100741.69
2023-04-26T11:28:21.903Z,100750.72
2023-04-26T11:30:48.268Z,100737.44
2023-04-26T11:33:14.497Z,100736.47
2023-04-26T11:35:40.728Z,100734.97
2023-04-26T11:38:06.951Z,100730.50
2023-04-26T11:40:33.184Z,100729.56
2023-04-26T11:42:59.414Z,100739.44
2023-04-26T11:45:25.625Z,100734.22
2023-04-26T11:47:51.848Z,100719.00
2023-04-26T11:50:18.115Z,100706.88
2023-04-26T11:52:44.300Z,100712.78
2023-04-26T11:55:10.491Z,100714.03
2023-04-26T11:57:36.641Z,100721.47
2023-04-26T12:00:02.864Z,100720.16
2023-04-26T12:02:29.175Z,100707.59
2023-04-26T12:04:55.665Z,100721.78
2023-04-26T12:07:21.988Z,100720.31
2023-04-26T12:09:48.155Z,100704.28
2023-04-26T12:12:14.300Z,100700.75
2023-04-26T12:14:40.560Z,100696.22
2023-04-26T12:17:06.778Z,100718.72
2023-04-26T12:19:32.979Z,100713.31
2023-04-26T12:21:59.153Z,100705.19
2023-04-26T12:24:25.342Z,100698.59
2023-04-26T12:26:51.459Z,100695.34
2023-04-26T12:29:17.605Z,100699.81
2023-04-26T12:31:43.828Z,100702.59
2023-04-26T12:34:10.026Z,100707.38
2023-04-26T12:36:36.228Z,100695.28
2023-04-26T12:39:02.546Z,100693.47
2023-04-26T12:41:28.723Z,100693.06
2023-04-26T12:43:54.942Z,100697.06
2023-04-26T12:46:21.147Z,100703.84
2023-04-26T12:48:47.359Z,100703.25
2023-04-26T12:51:13.596Z,100705.50
2023-04-26T12:53:39.742Z,100702.84
2023-04-26T12:56:05.913Z,100698.59
2023-04-26T12:58:32.131Z,100708.41
2023-04-26T13:00:58.314Z,100692.16
2023-04-26T13:03:24.690Z,100702.38
2023-04-26T13:05:50.970Z,100709.75
2023-04-26T13:08:17.325Z,100703.47
2023-04-26T13:10:43.537Z,100689.56
2023-04-26T13:13:09.717Z,100698.47
2023-04-26T13:15:35.963Z,100703.41
2023-04-26T13:18:02.203Z,100687.06
2023-04-26T13:20:29.691Z,100700.03
2023-04-26T13:22:57.171Z,100706.78
2023-04-26T13:25:23.420Z,100700.97
2023-04-26T13:27:49.617Z,100699.78
2023-04-26T13:30:16.852Z,100693.22
2023-04-26T13:32:43.033Z,100700.84
2023-04-26T13:35:09.208Z,100690.75
2023-04-26T13:37:35.450Z,100671.75
2023-04-26T13:40:01.719Z,100680.53
2023-04-26T13:42:31.082Z,100678.34
2023-04-26T13:44:57.304Z,100675.91
2023-04-26T13:47:23.628Z,100684.47
2023-04-26T13:49:49.873Z,100682.81
2023-04-26T13:52:16.077Z,100688.19
2023-04-26T13:54:42.310Z,100687.97
2023-04-26T13:57:08.480Z,100684.06
2023-04-26T13:59:34.685Z,100684.09
2023-04-26T14:02:00.925Z,100685.75
2023-04-26T14:04:27.481Z,100691.97
2023-04-26T14:06:53.875Z,100678.41
2023-04-26T14:09:20.067Z,100678.63
2023-04-26T14:11:51.603Z,100669.13
2023-04-26T14:14:23.815Z,100680.19
2023-04-26T14:16:50.038Z,100666.88
2023-04-26T14:19:16.224Z,100661.91
2023-04-26T14:21:42.377Z,100659.47
2023-04-26T14:24:08.576Z,100656.03
2023-04-26T14:26:35.052Z,100652.22
2023-04-26T14:29:01.198Z,100649.63
2023-04-26T14:31:27.390Z,100647.00
2023-04-26T14:33:53.561Z,100646.03
2023-04-26T14:36:19.743Z,100659.47
2023-04-26T14:38:45.932Z,100647.56
2023-04-26T14:41:12.121Z,100654.66
2023-04-26T14:43:38.319Z,100654.09
2023-04-26T14:46:04.547Z,100652.06
2023-04-26T14:48:30.700Z,100655.06
2023-04-26T14:50:56.917Z,100650.53
2023-04-26T14:53:23.065Z,100655.25
2023-04-26T14:55:49.236Z,100648.94
2023-04-26T14:58:15.659Z,100646.81
2023-04-26T15:00:42.111Z,100650.84
2023-04-26T15:03:08.481Z,100647.38
2023-04-26T15:05:34.720Z,100634.56
2023-04-26T15:08:00.978Z,100636.97
2023-04-26T15:10:27.119Z,100621.50
2023-04-26T15:12:53.339Z,100612.84
2023-04-26T15:15:19.531Z,100618.88
2023-04-26T15:17:45.750Z,100611.03
2023-04-26T15:20:11.980Z,100604.41
2023-04-26T15:22:38.860Z,100603.63
2023-04-26T15:25:05.351Z,100605.53
2023-04-26T15:27:31.584Z,100606.06
2023-04-26T15:29:57.778Z,100617.69
2023-04-26T15:32:23.943Z,100626.28
2023-04-26T15:34:50.128Z,100615.28
2023-04-26T15:37:16.306Z,100624.00
2023-04-26T15:39:42.483Z,100630.53
2023-04-26T15:42:08.659Z,100624.81
2023-04-26T15:44:34.820Z,100616.00
2023-04-26T15:47:01.011Z,100630.69
2023-04-26T15:49:27.171Z,100632.72
2023-04-26T15:51:53.308Z,100637.66
2023-04-26T15:54:19.509Z,100643.91
2023-04-26T15:56:45.662Z,100637.72
2023-04-26T15:59:11.881Z,100633.00
2023-04-26T16:01:38.139Z,100632.19
2023-04-26T16:04:04.606Z,100626.59
2023-04-26T16:06:30.865Z,100633.06
2023-04-26T16:08:57.081Z,100633.72
2023-04-26T16:11:23.265Z,100633.72
2023-04-26T16:13:49.454Z,100632.09
2023-04-26T16:16:15.672Z,100623.78
2023-04-26T16:18:41.936Z,100618.66
2023-04-26T16:21:08.078Z,100624.13
2023-04-26T16:23:34.212Z,100621.28
2023-04-26T16:26:00.408Z,100617.88
2023-04-26T16:28:26.598Z,100619.06
2023-04-26T16:30:52.741Z,100613.69
2023-04-26T16:33:21.382Z,100617.31
2023-04-26T16:35:48.989Z,100618.56
2023-04-26T16:38:15.141Z,100617.44
2023-04-26T16:40:41.261Z,100627.34
2023-04-26T16:43:07.458Z,100633.13
2023-04-26T16:45:33.628Z,100632.06
2023-04-26T16:47:59.868Z,100620.66
2023-04-26T16:50:26.050Z,100624.38
2023-04-26T16:52:54.710Z,100622.09
2023-04-26T16:55:22.697Z,100628.63
2023-04-26T16:57:49.143Z,100630.03
2023-04-26T17:00:15.313Z,100631.00
2023-04-26T17:02:43.045Z,100638.41
2023-04-26T17:05:09.459Z,100640.94
2023-04-26T17:07:35.770Z,100635.41
2023-04-26T17:10:02.058Z,100639.44
2023-04-26T17:12:28.347Z,100642.34
2023-04-26T17:14:56.753Z,100642.78
2023-04-26T17:17:22.915Z,100641.78
2023-04-26T17:19:49.058Z,100644.94
2023-04-26T17:22:15.349Z,100645.59
2023-04-26T17:24:41.519Z,100638.34
2023-04-26T17:27:07.660Z,100642.25
2023-04-26T17:29:33.914Z,100644.97
2023-04-26T17:32:00.279Z,100651.16
2023-04-26T17:34:26.645Z,100650.59
2023-04-26T17:36:52.885Z,100646.56
2023-04-26T17:39:19.110Z,100655.81
2023-04-26T17:41:45.309Z,100656.94
2023-04-26T17:44:11.474Z,100650.44
2023-04-26T17:46:37.711Z,100643.34
2023-04-26T17:49:03.916Z,100651.22
2023-04-26T17:51:30.173Z,100652.91
2023-04-26T17:54:00.505Z,100649.78
2023-04-26T17:56:26.830Z,100653.31
2023-04-26T17:58:53.048Z,100663.47
2023-04-26T18:01:19.335Z,100664.91
2023-04-26T18:03:45.704Z,100665.88
2023-04-26T18:06:12.091Z,100673.66
2023-04-26T18:08:38.310Z,100666.16
2023-04-26T18:11:04.671Z,100674.09
2023-04-26T18:13:30.952Z,100665.03
2023-04-26T18:15:57.177Z,100669.66
2023-04-26T18:18:24.640Z,100670.66
2023-04-26T18:20:52.963Z,100684.22
2023-04-26T18:23:19.481Z,100675.50
2023-04-26T18:25:45.909Z,100682.69
2023-04-26T18:28:12.144Z,100685.72
2023-04-26T18:30:38.383Z,100700.88
2023-04-26T18:33:04.628Z,100693.50
2023-04-26T18:35:30.876Z,100699.06
2023-04-26T18:40:37.200Z,100699.34
2023-04-26T18:43:03.393Z,100706.03
2023-04-26T18:48:11.926Z,100698.47
2023-04-26T18:50:38.199Z,100697.94
2023-04-26T18:53:04.501Z,100702.47
2023-04-26T18:55:30.697Z,100706.25
2023-04-26T18:57:56.944Z,100709.28
2023-04-26T19:00:23.123Z,100702.38
2023-04-26T19:02:49.589Z,100709.53
2023-04-26T19:05:16.005Z,100711.44
2023-04-26T19:07:42.316Z,100711.66
2023-04-26T19:10:08.528Z,100720.63
2023-04-26T19:12:34.740Z,100717.31
2023-04-26T19:15:00.921Z,100725.28
2023-04-26T19:17:27.221Z,100731.50
2023-04-26T19:19:56.977Z,100724.66
2023-04-26T19:22:23.157Z,100725.56
2023-04-26T19:24:55.547Z,100726.41
2023-04-26T19:27:21.778Z,100729.88
2023-04-26T19:29:49.751Z,100726.50
2023-04-26T19:32:18.295Z,100736.34
2023-04-26T19:34:46.617Z,100737.13
2023-04-26T19:37:12.828Z,100737.31
2023-04-26T19:39:39.038Z,100740.00
2023-04-26T19:42:05.223Z,100750.53
2023-04-26T19:44:31.433Z,100746.31
2023-04-26T19:46:57.954Z,100742.75
2023-04-26T19:49:24.268Z,100748.28
2023-04-26T19:51:50.489Z,100748.41
2023-04-26T19:54:19.717Z,100746.84
2023-04-26T19:56:45.910Z,100742.66
2023-04-26T19:59:12.328Z,100746.56
2023-04-26T20:01:38.568Z,100745.84
2023-04-26T20:04:04.913Z,100744.41
2023-04-26T20:06:31.264Z,100745.38
2023-04-26T20:08:57.453Z,100741.47
2023-04-26T20:11:23.608Z,100746.25
2023-04-26T20:13:49.852Z,100746.78
2023-04-26T20:16:16.106Z,100748.06
2023-04-26T20:18:42.479Z,100755.66
2023-04-26T20:21:08.747Z,100747.94
2023-04-26T20:23:35.026Z,100751.72
2023-04-26T20:26:01.172Z,100748.44
2023-04-26T20:28:27.338Z,100750.28
2023-04-26T20:30:53.510Z,100746.94
2023-04-26T20:33:19.728Z,100748.94
2023-04-26T20:35:45.959Z,100746.81
2023-04-26T20:38:12.161Z,100751.34
2023-04-26T20:40:38.334Z,100748.19
2023-04-26T20:43:04.484Z,100750.19
2023-04-26T20:45:30.652Z,100753.25
2023-04-26T20:47:56.996Z,100762.78
2023-04-26T20:50:23.210Z,100754.84
2023-04-26T20:52:49.375Z,100758.00
2023-04-26T20:55:15.617Z,100765.41
2023-04-26T20:57:41.858Z,100765.69
2023-04-26T21:00:08.095Z,100762.50
2023-04-26T21:02:34.385Z,100769.63
2023-04-26T21:05:00.712Z,100765.47
2023-04-26T21:07:26.837Z,100758.94
2023-04-26T21:09:53.968Z,100773.59
2023-04-26T21:12:20.136Z,100772.75
2023-04-26T21:14:46.351Z,100772.06
2023-04-26T21:17:12.554Z,100779.16
2023-04-26T21:19:38.749Z,100773.47
2023-04-26T21:22:04.916Z,100779.72
2023-04-26T21:24:31.042Z,100780.88
2023-04-26T21:27:00.061Z,100780.22
2023-04-26T21:29:26.261Z,100777.13
2023-04-26T21:31:55.494Z,100777.66
2023-04-26T21:34:21.718Z,100785.84
2023-04-26T21:36:47.930Z,100783.72
2023-04-26T21:39:16.923Z,100790.28
2023-04-26T21:41:43.144Z,100800.22
2023-04-26T21:44:09.354Z,100798.91
2023-04-26T21:46:35.631Z,100789.63
2023-04-26T21:49:03.391Z,100800.25
2023-04-26T21:51:29.513Z,100800.44
2023-04-26T21:53:55.723Z,100797.09
2023-04-26T21:56:24.714Z,100799.97
2023-04-26T21:58:50.869Z,100802.78
2023-04-26T22:01:17.076Z,100808.03
2023-04-26T22:03:44.575Z,100816.00
2023-04-26T22:06:10.836Z,100810.78
2023-04-26T22:08:39.485Z,100809.19
2023-04-26T22:11:05.642Z,100815.41
2023-04-26T22:13:31.782Z,100811.25
2023-04-26T22:15:57.984Z,100807.13
2023-04-26T22:18:24.187Z,100811.66
2023-04-26T22:20:50.364Z,100816.97
2023-04-26T22:23:16.520Z,100819.56
2023-04-26T22:25:42.656Z,100822.38
2023-04-26T22:28:08.818Z,100830.19
2023-04-26T22:30:35.011Z,100831.16
2023-04-26T22:33:01.208Z,100828.63
2023-04-26T22:35:27.386Z,100822.78
2023-04-26T22:37:53.564Z,100831.56
2023-04-26T22:40:19.734Z,100829.91
2023-04-26T22:42:45.924Z,100824.91
2023-04-26T22:45:12.095Z,100829.28
2023-04-26T22:47:40.081Z,100841.47
2023-04-26T22:50:06.282Z,100839.84
2023-04-26T22:52:32.632Z,100848.50
2023-04-26T22:54:58.898Z,100848.50
2023-04-26T22:57:25.977Z,100849.50
2023-04-26T22:59:52.139Z,100853.91
2023-04-26T23:02:18.310Z,100854.00
2023-04-26T23:04:44.547Z,100860.19
2023-04-26T23:07:13.534Z,100855.19
2023-04-26T23:09:39.757Z,100858.78
2023-04-26T23:12:06.052Z,100842.66
2023-04-26T23:14:32.173Z,100853.84
2023-04-26T23:16:58.379Z,100856.56
2023-04-26T23:19:24.612Z,100857.41
2023-04-26T23:21:50.773Z,100859.25
2023-04-26T23:24:16.937Z,100862.88
2023-04-26T23:26:43.092Z,100864.59
2023-04-26T23:29:09.266Z,100867.31
2023-04-26T23:31:35.525Z,100874.28
2023-04-26T23:34:01.792Z,100865.72
2023-04-26T23:36:28.017Z,100872.69
2023-04-26T23:38:54.195Z,100874.47
2023-04-26T23:41:20.375Z,100871.91
2023-04-26T23:43:46.560Z,100864.19
2023-04-26T23:46:12.795Z,100868.59
2023-04-26T23:48:39.059Z,100862.63
2023-04-26T23:51:05.262Z,100862.63
2023-04-26T23:53:31.456Z,100858.47
2023-04-26T23:55:57.594Z,100863.66
2023-04-26T23:58:23.789Z,100860.22
